sensor_id;sensor_type;location;lat;lon;timestamp;P1;durP1;ratioP1;P2;durP2;ratioP2
50495;SDS011;38806;51.554;5.704;2024-01-30T00:01:00;16.80;;;9.20;;
50495;SDS011;38806;51.554;5.704;2024-01-30T00:03:01;14.02;;;9.02;;
50495;SDS011;38806;51.554;5.704;2024-01-30T00:05:01;15.05;;;8.93;;
50495;SDS011;38806;51.554;5.704;2024-01-30T00:07:03;16.13;;;9.88;;
50495;SDS011;38806;51.554;5.704;2024-01-30T00:09:03;15.32;;;9.80;;
50495;SDS011;38806;51.554;5.704;2024-01-30T00:11:05;17.27;;;9.93;;
50495;SDS011;38806;51.554;5.704;2024-01-30T00:13:05;18.20;;;10.88;;
50495;SDS011;38806;51.554;5.704;2024-01-30T00:15:05;16.48;;;8.73;;
50495;SDS011;38806;51.554;5.704;2024-01-30T00:17:08;18.67;;;11.15;;
50495;SDS011;38806;51.554;5.704;2024-01-30T00:19:08;17.27;;;9.63;;
50495;SDS011;38806;51.554;5.704;2024-01-30T00:21:09;15.90;;;10.38;;
50495;SDS011;38806;51.554;5.704;2024-01-30T00:23:09;15.73;;;9.65;;
50495;SDS011;38806;51.554;5.704;2024-01-30T00:25:09;17.98;;;9.98;;
50495;SDS011;38806;51.554;5.704;2024-01-30T00:27:09;18.58;;;11.05;;
50495;SDS011;38806;51.554;5.704;2024-01-30T00:29:09;21.77;;;11.18;;
50495;SDS011;38806;51.554;5.704;2024-01-30T00:31:10;19.60;;;11.48;;
50495;SDS011;38806;51.554;5.704;2024-01-30T00:33:13;17.10;;;10.02;;
50495;SDS011;38806;51.554;5.704;2024-01-30T00:35:13;17.35;;;11.20;;
50495;SDS011;38806;51.554;5.704;2024-01-30T00:37:13;17.17;;;10.15;;
50495;SDS011;38806;51.554;5.704;2024-01-30T00:39:13;22.98;;;13.32;;
50495;SDS011;38806;51.554;5.704;2024-01-30T00:41:17;19.80;;;13.10;;
50495;SDS011;38806;51.554;5.704;2024-01-30T00:43:18;24.48;;;12.30;;
50495;SDS011;38806;51.554;5.704;2024-01-30T00:45:18;17.60;;;11.75;;
50495;SDS011;38806;51.554;5.704;2024-01-30T00:47:18;21.55;;;12.95;;
50495;SDS011;38806;51.554;5.704;2024-01-30T00:49:18;16.98;;;10.55;;
50495;SDS011;38806;51.554;5.704;2024-01-30T00:51:19;24.90;;;12.43;;
50495;SDS011;38806;51.554;5.704;2024-01-30T00:53:19;19.42;;;11.82;;
50495;SDS011;38806;51.554;5.704;2024-01-30T00:55:19;17.52;;;11.60;;
50495;SDS011;38806;51.554;5.704;2024-01-30T00:57:19;21.17;;;13.88;;
50495;SDS011;38806;51.554;5.704;2024-01-30T00:59:19;16.38;;;11.30;;
50495;SDS011;38806;51.554;5.704;2024-01-30T01:01:20;18.27;;;12.13;;
50495;SDS011;38806;51.554;5.704;2024-01-30T01:03:20;17.15;;;11.70;;
50495;SDS011;38806;51.554;5.704;2024-01-30T01:05:20;25.65;;;12.02;;
50495;SDS011;38806;51.554;5.704;2024-01-30T01:07:20;18.50;;;11.73;;
50495;SDS011;38806;51.554;5.704;2024-01-30T01:09:20;21.00;;;13.15;;
50495;SDS011;38806;51.554;5.704;2024-01-30T01:11:21;25.08;;;13.82;;
50495;SDS011;38806;51.554;5.704;2024-01-30T01:13:21;20.42;;;12.70;;
50495;SDS011;38806;51.554;5.704;2024-01-30T01:15:21;28.75;;;13.73;;
50495;SDS011;38806;51.554;5.704;2024-01-30T01:17:21;20.40;;;12.05;;
50495;SDS011;38806;51.554;5.704;2024-01-30T01:19:22;18.90;;;12.05;;
50495;SDS011;38806;51.554;5.704;2024-01-30T01:21:22;18.15;;;11.25;;
50495;SDS011;38806;51.554;5.704;2024-01-30T01:23:23;20.55;;;12.00;;
50495;SDS011;38806;51.554;5.704;2024-01-30T01:25:23;16.35;;;11.43;;
50495;SDS011;38806;51.554;5.704;2024-01-30T01:27:23;22.50;;;13.23;;
50495;SDS011;38806;51.554;5.704;2024-01-30T01:29:24;20.13;;;15.05;;
50495;SDS011;38806;51.554;5.704;2024-01-30T01:31:28;20.95;;;13.50;;
50495;SDS011;38806;51.554;5.704;2024-01-30T01:33:29;21.20;;;12.18;;
50495;SDS011;38806;51.554;5.704;2024-01-30T01:35:30;22.13;;;12.23;;
50495;SDS011;38806;51.554;5.704;2024-01-30T01:37:30;18.17;;;11.85;;
50495;SDS011;38806;51.554;5.704;2024-01-30T01:39:30;21.55;;;12.98;;
50495;SDS011;38806;51.554;5.704;2024-01-30T01:41:30;19.98;;;12.77;;
50495;SDS011;38806;51.554;5.704;2024-01-30T01:43:31;15.23;;;10.98;;
50495;SDS011;38806;51.554;5.704;2024-01-30T01:45:32;18.45;;;12.98;;
50495;SDS011;38806;51.554;5.704;2024-01-30T01:47:32;14.70;;;10.70;;
50495;SDS011;38806;51.554;5.704;2024-01-30T01:49:32;20.85;;;12.27;;
50495;SDS011;38806;51.554;5.704;2024-01-30T01:51:33;20.42;;;11.32;;
50495;SDS011;38806;51.554;5.704;2024-01-30T01:53:34;21.63;;;13.15;;
50495;SDS011;38806;51.554;5.704;2024-01-30T01:55:34;20.13;;;12.75;;
50495;SDS011;38806;51.554;5.704;2024-01-30T01:57:35;20.35;;;10.95;;
50495;SDS011;38806;51.554;5.704;2024-01-30T01:59:36;21.70;;;12.45;;
50495;SDS011;38806;51.554;5.704;2024-01-30T02:01:36;18.75;;;12.50;;
50495;SDS011;38806;51.554;5.704;2024-01-30T02:03:36;19.88;;;12.32;;
50495;SDS011;38806;51.554;5.704;2024-01-30T02:05:38;21.30;;;12.50;;
50495;SDS011;38806;51.554;5.704;2024-01-30T02:07:38;17.75;;;12.10;;
50495;SDS011;38806;51.554;5.704;2024-01-30T02:09:38;21.00;;;11.52;;
50495;SDS011;38806;51.554;5.704;2024-01-30T02:11:38;19.80;;;12.45;;
50495;SDS011;38806;51.554;5.704;2024-01-30T02:13:40;20.48;;;13.50;;
50495;SDS011;38806;51.554;5.704;2024-01-30T02:15:41;20.27;;;11.55;;
50495;SDS011;38806;51.554;5.704;2024-01-30T02:17:41;20.40;;;12.82;;
50495;SDS011;38806;51.554;5.704;2024-01-30T02:19:41;22.63;;;12.05;;
50495;SDS011;38806;51.554;5.704;2024-01-30T02:21:41;19.60;;;10.13;;
50495;SDS011;38806;51.554;5.704;2024-01-30T02:23:42;17.77;;;11.23;;
50495;SDS011;38806;51.554;5.704;2024-01-30T02:25:43;17.25;;;10.77;;
50495;SDS011;38806;51.554;5.704;2024-01-30T02:27:46;18.35;;;11.68;;
50495;SDS011;38806;51.554;5.704;2024-01-30T02:29:46;18.52;;;10.52;;
50495;SDS011;38806;51.554;5.704;2024-01-30T02:31:46;19.80;;;11.27;;
50495;SDS011;38806;51.554;5.704;2024-01-30T02:33:47;19.05;;;9.98;;
50495;SDS011;38806;51.554;5.704;2024-01-30T02:35:47;20.75;;;10.50;;
50495;SDS011;38806;51.554;5.704;2024-01-30T02:37:47;21.67;;;11.52;;
50495;SDS011;38806;51.554;5.704;2024-01-30T02:39:48;19.60;;;12.07;;
50495;SDS011;38806;51.554;5.704;2024-01-30T02:41:48;22.50;;;10.77;;
50495;SDS011;38806;51.554;5.704;2024-01-30T02:43:48;17.05;;;11.05;;
50495;SDS011;38806;51.554;5.704;2024-01-30T02:45:48;16.60;;;11.00;;
50495;SDS011;38806;51.554;5.704;2024-01-30T02:47:48;19.30;;;12.18;;
50495;SDS011;38806;51.554;5.704;2024-01-30T02:49:49;15.45;;;9.93;;
50495;SDS011;38806;51.554;5.704;2024-01-30T02:51:49;15.75;;;9.52;;
50495;SDS011;38806;51.554;5.704;2024-01-30T02:53:49;17.10;;;10.35;;
50495;SDS011;38806;51.554;5.704;2024-01-30T02:55:49;20.92;;;11.55;;
50495;SDS011;38806;51.554;5.704;2024-01-30T02:57:50;19.38;;;11.30;;
50495;SDS011;38806;51.554;5.704;2024-01-30T02:59:50;18.92;;;10.68;;
50495;SDS011;38806;51.554;5.704;2024-01-30T03:01:50;19.25;;;11.57;;
50495;SDS011;38806;51.554;5.704;2024-01-30T03:03:50;21.02;;;10.70;;
50495;SDS011;38806;51.554;5.704;2024-01-30T03:05:50;17.17;;;9.80;;
50495;SDS011;38806;51.554;5.704;2024-01-30T03:07:50;16.38;;;10.27;;
50495;SDS011;38806;51.554;5.704;2024-01-30T03:09:51;18.58;;;10.70;;
50495;SDS011;38806;51.554;5.704;2024-01-30T03:11:51;16.52;;;11.15;;
50495;SDS011;38806;51.554;5.704;2024-01-30T03:13:52;16.15;;;9.85;;
50495;SDS011;38806;51.554;5.704;2024-01-30T03:15:52;21.33;;;10.77;;
50495;SDS011;38806;51.554;5.704;2024-01-30T03:17:53;16.92;;;9.88;;
50495;SDS011;38806;51.554;5.704;2024-01-30T03:19:53;21.90;;;12.65;;
50495;SDS011;38806;51.554;5.704;2024-01-30T03:21:53;23.00;;;10.25;;
50495;SDS011;38806;51.554;5.704;2024-01-30T03:23:53;18.95;;;8.75;;
50495;SDS011;38806;51.554;5.704;2024-01-30T03:25:53;21.40;;;11.20;;
50495;SDS011;38806;51.554;5.704;2024-01-30T03:27:54;16.45;;;9.50;;
50495;SDS011;38806;51.554;5.704;2024-01-30T03:29:54;16.67;;;11.00;;
50495;SDS011;38806;51.554;5.704;2024-01-30T03:31:54;18.58;;;10.05;;
50495;SDS011;38806;51.554;5.704;2024-01-30T03:33:54;17.38;;;9.73;;
50495;SDS011;38806;51.554;5.704;2024-01-30T03:35:54;14.43;;;10.38;;
50495;SDS011;38806;51.554;5.704;2024-01-30T03:37:54;14.57;;;9.68;;
50495;SDS011;38806;51.554;5.704;2024-01-30T03:39:55;17.38;;;10.18;;
50495;SDS011;38806;51.554;5.704;2024-01-30T03:41:55;20.15;;;11.20;;
50495;SDS011;38806;51.554;5.704;2024-01-30T03:43:56;18.88;;;10.82;;
50495;SDS011;38806;51.554;5.704;2024-01-30T03:45:56;18.02;;;10.30;;
50495;SDS011;38806;51.554;5.704;2024-01-30T03:47:56;15.85;;;10.48;;
50495;SDS011;38806;51.554;5.704;2024-01-30T03:49:56;13.98;;;9.07;;
50495;SDS011;38806;51.554;5.704;2024-01-30T03:51:57;18.70;;;9.68;;
50495;SDS011;38806;51.554;5.704;2024-01-30T03:53:57;17.10;;;10.82;;
50495;SDS011;38806;51.554;5.704;2024-01-30T03:55:57;14.88;;;9.88;;
50495;SDS011;38806;51.554;5.704;2024-01-30T03:57:57;16.73;;;9.00;;
50495;SDS011;38806;51.554;5.704;2024-01-30T03:59:57;18.35;;;11.32;;
50495;SDS011;38806;51.554;5.704;2024-01-30T04:01:58;16.83;;;9.32;;
50495;SDS011;38806;51.554;5.704;2024-01-30T04:03:58;17.98;;;10.20;;
50495;SDS011;38806;51.554;5.704;2024-01-30T04:05:58;18.60;;;9.38;;
50495;SDS011;38806;51.554;5.704;2024-01-30T04:07:58;14.00;;;9.20;;
50495;SDS011;38806;51.554;5.704;2024-01-30T04:09:59;19.75;;;10.93;;
50495;SDS011;38806;51.554;5.704;2024-01-30T04:11:59;16.63;;;9.80;;
50495;SDS011;38806;51.554;5.704;2024-01-30T04:13:59;18.65;;;10.00;;
50495;SDS011;38806;51.554;5.704;2024-01-30T04:15:59;18.75;;;10.95;;
50495;SDS011;38806;51.554;5.704;2024-01-30T04:18:01;16.38;;;9.02;;
50495;SDS011;38806;51.554;5.704;2024-01-30T04:20:01;22.80;;;9.93;;
50495;SDS011;38806;51.554;5.704;2024-01-30T04:22:01;19.65;;;9.65;;
50495;SDS011;38806;51.554;5.704;2024-01-30T04:24:02;18.60;;;9.80;;
50495;SDS011;38806;51.554;5.704;2024-01-30T04:26:02;16.85;;;8.85;;
50495;SDS011;38806;51.554;5.704;2024-01-30T04:28:03;14.45;;;8.32;;
50495;SDS011;38806;51.554;5.704;2024-01-30T04:30:03;12.43;;;7.57;;
50495;SDS011;38806;51.554;5.704;2024-01-30T04:32:04;14.82;;;9.25;;
50495;SDS011;38806;51.554;5.704;2024-01-30T04:34:04;16.23;;;8.50;;
50495;SDS011;38806;51.554;5.704;2024-01-30T04:36:04;11.65;;;7.80;;
50495;SDS011;38806;51.554;5.704;2024-01-30T04:38:04;17.02;;;9.85;;
50495;SDS011;38806;51.554;5.704;2024-01-30T04:40:05;13.77;;;8.13;;
50495;SDS011;38806;51.554;5.704;2024-01-30T04:42:05;15.10;;;8.20;;
50495;SDS011;38806;51.554;5.704;2024-01-30T04:44:05;12.20;;;8.02;;
50495;SDS011;38806;51.554;5.704;2024-01-30T04:46:06;11.10;;;7.10;;
50495;SDS011;38806;51.554;5.704;2024-01-30T04:48:07;20.48;;;7.72;;
50495;SDS011;38806;51.554;5.704;2024-01-30T04:50:07;13.95;;;8.75;;
50495;SDS011;38806;51.554;5.704;2024-01-30T04:52:08;14.82;;;7.75;;
50495;SDS011;38806;51.554;5.704;2024-01-30T04:54:08;18.75;;;8.48;;
50495;SDS011;38806;51.554;5.704;2024-01-30T04:56:09;12.23;;;7.32;;
50495;SDS011;38806;51.554;5.704;2024-01-30T04:58:09;13.38;;;7.65;;
50495;SDS011;38806;51.554;5.704;2024-01-30T05:00:09;13.60;;;8.10;;
50495;SDS011;38806;51.554;5.704;2024-01-30T05:02:09;15.35;;;9.07;;
50495;SDS011;38806;51.554;5.704;2024-01-30T05:04:10;14.63;;;8.68;;
50495;SDS011;38806;51.554;5.704;2024-01-30T05:06:11;14.75;;;7.38;;
50495;SDS011;38806;51.554;5.704;2024-01-30T05:08:11;17.35;;;9.18;;
50495;SDS011;38806;51.554;5.704;2024-01-30T05:10:11;12.98;;;8.02;;
50495;SDS011;38806;51.554;5.704;2024-01-30T05:12:11;12.80;;;6.78;;
50495;SDS011;38806;51.554;5.704;2024-01-30T05:14:12;13.27;;;7.97;;
50495;SDS011;38806;51.554;5.704;2024-01-30T05:16:12;15.25;;;8.65;;
50495;SDS011;38806;51.554;5.704;2024-01-30T05:18:12;14.65;;;8.63;;
50495;SDS011;38806;51.554;5.704;2024-01-30T05:20:13;19.08;;;8.38;;
50495;SDS011;38806;51.554;5.704;2024-01-30T05:22:13;15.15;;;8.35;;
50495;SDS011;38806;51.554;5.704;2024-01-30T05:24:18;15.20;;;8.63;;
50495;SDS011;38806;51.554;5.704;2024-01-30T05:26:18;16.02;;;8.77;;
50495;SDS011;38806;51.554;5.704;2024-01-30T05:28:18;11.52;;;6.97;;
50495;SDS011;38806;51.554;5.704;2024-01-30T05:30:19;12.95;;;7.30;;
50495;SDS011;38806;51.554;5.704;2024-01-30T05:32:19;14.02;;;8.90;;
50495;SDS011;38806;51.554;5.704;2024-01-30T05:34:19;13.63;;;7.15;;
50495;SDS011;38806;51.554;5.704;2024-01-30T05:36:19;12.90;;;8.40;;
50495;SDS011;38806;51.554;5.704;2024-01-30T05:38:20;13.05;;;8.00;;
50495;SDS011;38806;51.554;5.704;2024-01-30T05:40:21;15.93;;;8.13;;
50495;SDS011;38806;51.554;5.704;2024-01-30T05:42:21;11.70;;;6.75;;
50495;SDS011;38806;51.554;5.704;2024-01-30T05:44:21;12.60;;;7.32;;
50495;SDS011;38806;51.554;5.704;2024-01-30T05:46:21;13.18;;;6.65;;
50495;SDS011;38806;51.554;5.704;2024-01-30T05:48:21;12.13;;;7.55;;
50495;SDS011;38806;51.554;5.704;2024-01-30T05:50:22;16.45;;;8.20;;
50495;SDS011;38806;51.554;5.704;2024-01-30T05:52:23;13.77;;;7.75;;
50495;SDS011;38806;51.554;5.704;2024-01-30T05:54:23;10.48;;;6.97;;
50495;SDS011;38806;51.554;5.704;2024-01-30T05:56:23;13.45;;;7.88;;
50495;SDS011;38806;51.554;5.704;2024-01-30T05:58:23;12.30;;;7.72;;
50495;SDS011;38806;51.554;5.704;2024-01-30T06:00:24;17.42;;;7.90;;
50495;SDS011;38806;51.554;5.704;2024-01-30T06:02:24;13.27;;;6.97;;
50495;SDS011;38806;51.554;5.704;2024-01-30T06:04:24;11.30;;;6.25;;
50495;SDS011;38806;51.554;5.704;2024-01-30T06:06:24;12.10;;;7.40;;
50495;SDS011;38806;51.554;5.704;2024-01-30T06:08:24;10.63;;;6.50;;
50495;SDS011;38806;51.554;5.704;2024-01-30T06:10:25;11.90;;;6.45;;
50495;SDS011;38806;51.554;5.704;2024-01-30T06:12:25;12.60;;;8.20;;
50495;SDS011;38806;51.554;5.704;2024-01-30T06:14:25;12.00;;;6.63;;
50495;SDS011;38806;51.554;5.704;2024-01-30T06:16:26;13.93;;;7.32;;
50495;SDS011;38806;51.554;5.704;2024-01-30T06:18:29;9.82;;;6.25;;
50495;SDS011;38806;51.554;5.704;2024-01-30T06:20:31;12.95;;;7.13;;
50495;SDS011;38806;51.554;5.704;2024-01-30T06:22:31;12.68;;;7.10;;
50495;SDS011;38806;51.554;5.704;2024-01-30T06:24:31;13.20;;;7.43;;
50495;SDS011;38806;51.554;5.704;2024-01-30T06:26:31;14.90;;;8.02;;
50495;SDS011;38806;51.554;5.704;2024-01-30T06:28:32;9.48;;;5.95;;
50495;SDS011;38806;51.554;5.704;2024-01-30T06:30:32;15.90;;;7.63;;
50495;SDS011;38806;51.554;5.704;2024-01-30T06:32:32;13.73;;;7.88;;
50495;SDS011;38806;51.554;5.704;2024-01-30T06:34:34;14.15;;;6.90;;
50495;SDS011;38806;51.554;5.704;2024-01-30T06:36:34;12.73;;;7.82;;
50495;SDS011;38806;51.554;5.704;2024-01-30T06:38:34;11.18;;;6.55;;
50495;SDS011;38806;51.554;5.704;2024-01-30T06:40:34;11.18;;;5.75;;
50495;SDS011;38806;51.554;5.704;2024-01-30T06:42:35;10.70;;;6.53;;
50495;SDS011;38806;51.554;5.704;2024-01-30T06:44:35;12.90;;;7.55;;
50495;SDS011;38806;51.554;5.704;2024-01-30T06:46:35;11.27;;;7.07;;
50495;SDS011;38806;51.554;5.704;2024-01-30T06:48:35;15.82;;;7.20;;
50495;SDS011;38806;51.554;5.704;2024-01-30T06:50:36;12.07;;;7.03;;
50495;SDS011;38806;51.554;5.704;2024-01-30T06:52:36;12.38;;;7.10;;
50495;SDS011;38806;51.554;5.704;2024-01-30T06:54:36;13.02;;;7.70;;
50495;SDS011;38806;51.554;5.704;2024-01-30T06:56:36;12.38;;;7.45;;
50495;SDS011;38806;51.554;5.704;2024-01-30T06:58:36;13.27;;;7.25;;
50495;SDS011;38806;51.554;5.704;2024-01-30T07:00:37;11.73;;;5.97;;
50495;SDS011;38806;51.554;5.704;2024-01-30T07:02:37;12.23;;;8.52;;
50495;SDS011;38806;51.554;5.704;2024-01-30T07:04:37;11.20;;;6.70;;
50495;SDS011;38806;51.554;5.704;2024-01-30T07:06:38;12.63;;;7.32;;
50495;SDS011;38806;51.554;5.704;2024-01-30T07:08:38;14.10;;;7.47;;
50495;SDS011;38806;51.554;5.704;2024-01-30T07:10:39;11.20;;;6.88;;
50495;SDS011;38806;51.554;5.704;2024-01-30T07:12:39;13.30;;;8.27;;
50495;SDS011;38806;51.554;5.704;2024-01-30T07:14:39;11.60;;;7.38;;
50495;SDS011;38806;51.554;5.704;2024-01-30T07:16:39;13.48;;;8.23;;
50495;SDS011;38806;51.554;5.704;2024-01-30T07:18:40;14.93;;;6.97;;
50495;SDS011;38806;51.554;5.704;2024-01-30T07:20:40;16.85;;;7.28;;
50495;SDS011;38806;51.554;5.704;2024-01-30T07:22:46;14.82;;;7.55;;
50495;SDS011;38806;51.554;5.704;2024-01-30T07:24:46;12.73;;;8.35;;
50495;SDS011;38806;51.554;5.704;2024-01-30T07:26:48;12.55;;;7.07;;
50495;SDS011;38806;51.554;5.704;2024-01-30T07:28:48;10.43;;;6.82;;
50495;SDS011;38806;51.554;5.704;2024-01-30T07:30:48;12.05;;;5.97;;
50495;SDS011;38806;51.554;5.704;2024-01-30T07:32:49;10.65;;;5.90;;
50495;SDS011;38806;51.554;5.704;2024-01-30T07:34:49;12.85;;;7.55;;
50495;SDS011;38806;51.554;5.704;2024-01-30T07:36:49;12.65;;;7.38;;
50495;SDS011;38806;51.554;5.704;2024-01-30T07:38:49;11.45;;;6.00;;
50495;SDS011;38806;51.554;5.704;2024-01-30T07:40:49;10.50;;;7.05;;
50495;SDS011;38806;51.554;5.704;2024-01-30T07:42:49;13.70;;;6.88;;
50495;SDS011;38806;51.554;5.704;2024-01-30T07:44:50;14.23;;;8.20;;
50495;SDS011;38806;51.554;5.704;2024-01-30T07:46:50;13.52;;;6.47;;
50495;SDS011;38806;51.554;5.704;2024-01-30T07:48:50;10.20;;;6.60;;
50495;SDS011;38806;51.554;5.704;2024-01-30T07:50:51;11.15;;;7.38;;
50495;SDS011;38806;51.554;5.704;2024-01-30T07:52:51;12.13;;;6.78;;
50495;SDS011;38806;51.554;5.704;2024-01-30T07:54:54;10.40;;;6.65;;
50495;SDS011;38806;51.554;5.704;2024-01-30T07:56:55;13.65;;;7.18;;
50495;SDS011;38806;51.554;5.704;2024-01-30T07:58:55;9.13;;;5.30;;
50495;SDS011;38806;51.554;5.704;2024-01-30T08:00:55;13.25;;;6.90;;
50495;SDS011;38806;51.554;5.704;2024-01-30T08:02:58;9.95;;;7.00;;
50495;SDS011;38806;51.554;5.704;2024-01-30T08:04:58;10.38;;;5.50;;
50495;SDS011;38806;51.554;5.704;2024-01-30T08:06:58;12.57;;;6.65;;
50495;SDS011;38806;51.554;5.704;2024-01-30T08:08:59;10.25;;;6.03;;
50495;SDS011;38806;51.554;5.704;2024-01-30T08:10:59;12.07;;;7.25;;
50495;SDS011;38806;51.554;5.704;2024-01-30T08:12:59;10.13;;;6.63;;
50495;SDS011;38806;51.554;5.704;2024-01-30T08:14:59;11.52;;;6.20;;
50495;SDS011;38806;51.554;5.704;2024-01-30T08:16:59;11.50;;;6.00;;
50495;SDS011;38806;51.554;5.704;2024-01-30T08:19:00;12.55;;;6.68;;
50495;SDS011;38806;51.554;5.704;2024-01-30T08:21:01;11.57;;;6.47;;
50495;SDS011;38806;51.554;5.704;2024-01-30T08:23:01;12.02;;;7.38;;
50495;SDS011;38806;51.554;5.704;2024-01-30T08:25:01;16.75;;;6.18;;
50495;SDS011;38806;51.554;5.704;2024-01-30T08:27:02;12.73;;;6.72;;
50495;SDS011;38806;51.554;5.704;2024-01-30T08:29:02;11.15;;;5.60;;
50495;SDS011;38806;51.554;5.704;2024-01-30T08:31:02;12.23;;;7.18;;
50495;SDS011;38806;51.554;5.704;2024-01-30T08:33:03;16.05;;;6.50;;
50495;SDS011;38806;51.554;5.704;2024-01-30T08:35:03;11.07;;;6.93;;
50495;SDS011;38806;51.554;5.704;2024-01-30T08:37:03;11.05;;;6.18;;
50495;SDS011;38806;51.554;5.704;2024-01-30T08:39:04;10.43;;;5.53;;
50495;SDS011;38806;51.554;5.704;2024-01-30T08:41:05;11.77;;;5.95;;
50495;SDS011;38806;51.554;5.704;2024-01-30T08:43:05;11.13;;;6.32;;
50495;SDS011;38806;51.554;5.704;2024-01-30T08:45:05;10.73;;;5.85;;
50495;SDS011;38806;51.554;5.704;2024-01-30T08:47:06;14.00;;;6.53;;
50495;SDS011;38806;51.554;5.704;2024-01-30T08:49:06;8.73;;;5.07;;
50495;SDS011;38806;51.554;5.704;2024-01-30T08:51:07;12.75;;;6.90;;
50495;SDS011;38806;51.554;5.704;2024-01-30T08:53:08;10.88;;;6.57;;
50495;SDS011;38806;51.554;5.704;2024-01-30T08:55:08;15.95;;;7.03;;
50495;SDS011;38806;51.554;5.704;2024-01-30T08:57:09;13.43;;;6.10;;
50495;SDS011;38806;51.554;5.704;2024-01-30T08:59:09;11.10;;;6.45;;
50495;SDS011;38806;51.554;5.704;2024-01-30T09:01:09;12.05;;;6.15;;
50495;SDS011;38806;51.554;5.704;2024-01-30T09:03:10;9.93;;;5.90;;
50495;SDS011;38806;51.554;5.704;2024-01-30T09:05:10;18.60;;;6.97;;
50495;SDS011;38806;51.554;5.704;2024-01-30T09:07:10;11.85;;;6.05;;
50495;SDS011;38806;51.554;5.704;2024-01-30T09:09:10;10.70;;;6.00;;
50495;SDS011;38806;51.554;5.704;2024-01-30T09:11:14;9.48;;;6.40;;
50495;SDS011;38806;51.554;5.704;2024-01-30T09:13:14;11.75;;;5.53;;
50495;SDS011;38806;51.554;5.704;2024-01-30T09:15:15;12.38;;;5.88;;
50495;SDS011;38806;51.554;5.704;2024-01-30T09:17:15;12.77;;;5.97;;
50495;SDS011;38806;51.554;5.704;2024-01-30T09:19:15;10.40;;;5.55;;
50495;SDS011;38806;51.554;5.704;2024-01-30T09:21:15;12.40;;;6.68;;
50495;SDS011;38806;51.554;5.704;2024-01-30T09:23:15;11.40;;;4.77;;
50495;SDS011;38806;51.554;5.704;2024-01-30T09:25:17;12.23;;;6.55;;
50495;SDS011;38806;51.554;5.704;2024-01-30T09:27:18;11.10;;;6.00;;
50495;SDS011;38806;51.554;5.704;2024-01-30T09:29:19;15.00;;;6.97;;
50495;SDS011;38806;51.554;5.704;2024-01-30T09:31:19;12.50;;;6.28;;
50495;SDS011;38806;51.554;5.704;2024-01-30T09:33:19;10.82;;;6.88;;
50495;SDS011;38806;51.554;5.704;2024-01-30T09:35:20;13.85;;;6.00;;
50495;SDS011;38806;51.554;5.704;2024-01-30T09:37:20;12.10;;;8.47;;
50495;SDS011;38806;51.554;5.704;2024-01-30T09:39:20;14.18;;;6.32;;
50495;SDS011;38806;51.554;5.704;2024-01-30T09:41:20;9.63;;;6.47;;
50495;SDS011;38806;51.554;5.704;2024-01-30T09:43:23;11.05;;;6.28;;
50495;SDS011;38806;51.554;5.704;2024-01-30T09:45:24;12.18;;;7.78;;
50495;SDS011;38806;51.554;5.704;2024-01-30T09:47:24;10.63;;;5.40;;
50495;SDS011;38806;51.554;5.704;2024-01-30T09:49:25;11.93;;;6.68;;
50495;SDS011;38806;51.554;5.704;2024-01-30T09:51:27;13.25;;;6.82;;
50495;SDS011;38806;51.554;5.704;2024-01-30T09:53:28;13.20;;;7.65;;
50495;SDS011;38806;51.554;5.704;2024-01-30T09:55:28;12.15;;;7.13;;
50495;SDS011;38806;51.554;5.704;2024-01-30T09:57:28;14.27;;;8.30;;
50495;SDS011;38806;51.554;5.704;2024-01-30T09:59:28;12.30;;;6.50;;
50495;SDS011;38806;51.554;5.704;2024-01-30T10:01:28;12.13;;;6.97;;
50495;SDS011;38806;51.554;5.704;2024-01-30T10:03:29;14.60;;;6.97;;
50495;SDS011;38806;51.554;5.704;2024-01-30T10:05:29;11.67;;;6.03;;
50495;SDS011;38806;51.554;5.704;2024-01-30T10:07:31;10.98;;;5.88;;
50495;SDS011;38806;51.554;5.704;2024-01-30T10:09:32;14.23;;;7.43;;
50495;SDS011;38806;51.554;5.704;2024-01-30T10:11:33;10.00;;;6.85;;
50495;SDS011;38806;51.554;5.704;2024-01-30T10:13:34;14.32;;;6.93;;
50495;SDS011;38806;51.554;5.704;2024-01-30T10:15:34;13.80;;;6.50;;
50495;SDS011;38806;51.554;5.704;2024-01-30T10:17:37;16.10;;;8.73;;
50495;SDS011;38806;51.554;5.704;2024-01-30T10:19:37;13.25;;;7.68;;
50495;SDS011;38806;51.554;5.704;2024-01-30T10:21:38;11.93;;;6.47;;
50495;SDS011;38806;51.554;5.704;2024-01-30T10:23:38;11.13;;;6.93;;
50495;SDS011;38806;51.554;5.704;2024-01-30T10:25:38;16.63;;;6.85;;
50495;SDS011;38806;51.554;5.704;2024-01-30T10:27:41;13.23;;;6.43;;
50495;SDS011;38806;51.554;5.704;2024-01-30T10:29:41;11.07;;;6.25;;
50495;SDS011;38806;51.554;5.704;2024-01-30T10:31:42;17.48;;;7.80;;
50495;SDS011;38806;51.554;5.704;2024-01-30T10:33:42;11.50;;;6.15;;
50495;SDS011;38806;51.554;5.704;2024-01-30T10:35:43;12.73;;;6.70;;
50495;SDS011;38806;51.554;5.704;2024-01-30T10:37:43;11.57;;;6.55;;
50495;SDS011;38806;51.554;5.704;2024-01-30T10:39:45;12.40;;;6.82;;
50495;SDS011;38806;51.554;5.704;2024-01-30T10:41:45;11.02;;;6.75;;
50495;SDS011;38806;51.554;5.704;2024-01-30T10:43:50;15.70;;;8.45;;
50495;SDS011;38806;51.554;5.704;2024-01-30T10:45:53;13.05;;;7.25;;
50495;SDS011;38806;51.554;5.704;2024-01-30T10:47:54;12.77;;;6.72;;
50495;SDS011;38806;51.554;5.704;2024-01-30T10:49:56;15.15;;;6.80;;
50495;SDS011;38806;51.554;5.704;2024-01-30T10:51:58;14.75;;;7.32;;
50495;SDS011;38806;51.554;5.704;2024-01-30T10:53:58;16.90;;;7.75;;
50495;SDS011;38806;51.554;5.704;2024-01-30T10:55:58;14.50;;;7.22;;
50495;SDS011;38806;51.554;5.704;2024-01-30T10:57:59;11.35;;;6.53;;
50495;SDS011;38806;51.554;5.704;2024-01-30T11:00:00;13.25;;;7.05;;
50495;SDS011;38806;51.554;5.704;2024-01-30T11:02:01;13.05;;;7.18;;
50495;SDS011;38806;51.554;5.704;2024-01-30T11:04:02;14.13;;;6.38;;
50495;SDS011;38806;51.554;5.704;2024-01-30T11:06:02;12.18;;;6.43;;
50495;SDS011;38806;51.554;5.704;2024-01-30T11:08:15;12.50;;;7.00;;
50495;SDS011;38806;51.554;5.704;2024-01-30T11:10:22;12.02;;;7.97;;
50495;SDS011;38806;51.554;5.704;2024-01-30T11:12:25;13.70;;;6.45;;
50495;SDS011;38806;51.554;5.704;2024-01-30T11:14:26;13.32;;;6.93;;
50495;SDS011;38806;51.554;5.704;2024-01-30T11:16:30;14.85;;;7.95;;
50495;SDS011;38806;51.554;5.704;2024-01-30T11:18:31;10.68;;;7.05;;
50495;SDS011;38806;51.554;5.704;2024-01-30T11:20:31;10.75;;;6.85;;
50495;SDS011;38806;51.554;5.704;2024-01-30T11:22:32;10.20;;;6.45;;
50495;SDS011;38806;51.554;5.704;2024-01-30T11:24:38;14.53;;;8.73;;
50495;SDS011;38806;51.554;5.704;2024-01-30T11:26:38;12.27;;;6.35;;
50495;SDS011;38806;51.554;5.704;2024-01-30T11:28:39;12.60;;;7.25;;
50495;SDS011;38806;51.554;5.704;2024-01-30T11:30:39;16.75;;;8.75;;
50495;SDS011;38806;51.554;5.704;2024-01-30T11:32:39;15.57;;;7.20;;
50495;SDS011;38806;51.554;5.704;2024-01-30T11:34:40;17.90;;;7.50;;
50495;SDS011;38806;51.554;5.704;2024-01-30T11:36:41;12.95;;;6.60;;
50495;SDS011;38806;51.554;5.704;2024-01-30T11:38:42;17.13;;;7.82;;
50495;SDS011;38806;51.554;5.704;2024-01-30T11:40:45;21.20;;;7.97;;
50495;SDS011;38806;51.554;5.704;2024-01-30T11:42:45;12.43;;;6.70;;
50495;SDS011;38806;51.554;5.704;2024-01-30T11:44:47;13.15;;;7.07;;
50495;SDS011;38806;51.554;5.704;2024-01-30T11:46:48;13.02;;;6.97;;
50495;SDS011;38806;51.554;5.704;2024-01-30T11:48:48;12.70;;;6.35;;
50495;SDS011;38806;51.554;5.704;2024-01-30T11:50:58;16.50;;;7.55;;
50495;SDS011;38806;51.554;5.704;2024-01-30T11:52:59;9.43;;;6.13;;